Mindoro — SVAS8 — position and weather

sailwx.info

Track history (hours):
 
Tides and Currents Weather Stations Pressure Air Temp Water Temp Dewpoint Dewpoint Depression Visibility Wind Speed Wind Dir Waves Ship Positions

Mindoro

Last reported at 2014-Jul-23 10:27 UTC. Time now 2014-Jul-24 13:08 UTC.
Position N 01°13' E 103°52'.

Length 245 m; draft 8.5 m.

Type: Tanker. MMSI: 240924000.

Date/timePositionNaut miles runAvg speedWind from/ knotsBaromVisibWave heightAir tempDewpointWater temp
2014-Jul-23 10:27N 01°13' E 103°52'5 5.7
2014-Jul-23 09:33N 01°16' E 103°56'0 0.1
2014-Jul-23 06:15N 01°17' E 103°56'0 0.1
2014-Jul-23 05:33N 01°17' E 103°56'0 0.1
2014-Jul-23 04:33N 01°17' E 103°56'0 0.0
2014-Jul-23 03:21N 01°17' E 103°56'0 0.1
2014-Jul-23 02:33N 01°17' E 103°56'0 0.1
2014-Jul-23 01:27N 01°17' E 103°56'0 0.1
2014-Jul-23 00:33N 01°17' E 103°56'0 0.1
2014-Jul-22 23:33N 01°17' E 103°56'0 0.0
2014-Jul-22 22:33N 01°17' E 103°56'0 0.0
2014-Jul-22 21:33N 01°17' E 103°56'0 0.1
2014-Jul-22 20:33N 01°17' E 103°56'0 0.0
2014-Jul-22 19:33N 01°17' E 103°56'0 0.0
2014-Jul-22 18:33N 01°17' E 103°56'0 0.1
2014-Jul-22 17:30N 01°17' E 103°56'0 0.0
2014-Jul-22 16:33N 01°17' E 103°56'0 0.0
2014-Jul-22 15:33N 01°17' E 103°56'0 0.0
2014-Jul-22 14:27N 01°17' E 103°56'0 0.1
2014-Jul-22 13:33N 01°17' E 103°56'0 0.1
2014-Jul-22 12:33N 01°17' E 103°56'0 0.1
2014-Jul-22 11:33N 01°17' E 103°56'0 0.0
2014-Jul-22 10:33N 01°17' E 103°56'0 0.0
2014-Jul-22 09:33N 01°17' E 103°56'0 0.0
2014-Jul-22 07:21N 01°17' E 103°56'0 0.1
2014-Jul-22 06:24N 01°17' E 103°56'0 0.0
2014-Jul-22 04:30N 01°17' E 103°56'0 0.0
2014-Jul-22 03:09N 01°17' E 103°56'0 0.0
2014-Jul-22 02:27N 01°17' E 103°56'0 0.0
2014-Jul-22 01:30N 01°17' E 103°56'0 0.0
2014-Jul-22 00:30N 01°17' E 103°56'0 0.0
2014-Jul-21 23:33N 01°17' E 103°56'0 0.0
2014-Jul-21 22:33N 01°17' E 103°56'0 0.1
2014-Jul-21 21:33N 01°17' E 103°56'0 0.1
2014-Jul-21 20:33N 01°17' E 103°56'0 0.2
2014-Jul-21 20:15N 01°17' E 103°56'0 0.0
2014-Jul-21 19:30N 01°17' E 103°56'0 0.1
2014-Jul-21 18:33N 01°17' E 103°56'0 0.0
2014-Jul-21 17:33N 01°17' E 103°56'0 0.0
2014-Jul-21 16:33N 01°17' E 103°56'0 0.0
2014-Jul-21 15:33N 01°17' E 103°56'0 0.0
2014-Jul-21 14:33N 01°17' E 103°56'0 0.0
2014-Jul-21 13:30N 01°17' E 103°56'0 0.1
2014-Jul-21 12:33N 01°17' E 103°56'0 0.1
2014-Jul-21 11:33N 01°17' E 103°56'0 0.0
2014-Jul-21 09:33N 01°17' E 103°56'0 0.0
2014-Jul-21 08:33N 01°17' E 103°56'0 0.0
2014-Jul-21 07:18N 01°17' E 103°56'0 0.0
2014-Jul-21 06:33N 01°17' E 103°56'0 0.0
2014-Jul-21 05:33N 01°17' E 103°56'0 0.1
2014-Jul-21 04:33N 01°17' E 103°56'0 0.0
2014-Jul-21 03:33N 01°17' E 103°56'0 0.0
2014-Jul-21 02:33N 01°17' E 103°56'0 0.0
2014-Jul-21 01:33N 01°17' E 103°56'0 0.0
2014-Jul-21 00:33N 01°17' E 103°56'0 0.0
2014-Jul-20 23:33N 01°17' E 103°56'0 0.0
2014-Jul-20 22:33N 01°17' E 103°56'0 0.0
2014-Jul-20 21:33N 01°17' E 103°56'0 0.0
2014-Jul-20 20:33N 01°17' E 103°56'0 0.0
2014-Jul-20 19:30N 01°17' E 103°56'0 0.1
2014-Jul-20 18:33N 01°17' E 103°56'0 0.0
2014-Jul-20 17:33N 01°17' E 103°56'0 0.0
2014-Jul-20 16:33N 01°17' E 103°56'0 0.0
2014-Jul-20 15:33N 01°17' E 103°56'0 0.4
2014-Jul-20 14:33N 01°17' E 103°56'4 3.5
2014-Jul-20 13:33N 01°16' E 103°59'4 4.0
2014-Jul-20 12:33N 01°16' E 104°03'  
2014-Jul-15 07:16N 22°19' E 119°59'1013.4
2014-Jul-15 06:33N 22°28' E 120°04'8 8.1
2014-Jul-15 05:33N 22°35' E 120°08'5 5.1
2014-Jul-15 04:33N 22°31' E 120°04'9 9.4
2014-Jul-15 03:33N 22°22' E 120°05'1311.3
2014-Jul-15 02:22N 22°09' E 120°07'  
Track history (hours):
 
Tides and Currents Weather Stations Pressure Air Temp Water Temp Dewpoint Dewpoint Depression Visibility Wind Speed Wind Dir Waves Ship Positions

Mindoro

Last reported at 2014-Jul-23 10:27 UTC. Time now 2014-Jul-24 13:08 UTC.
Position N 01°13' E 103°52'.

Length 245 m; draft 8.5 m.

Type: Tanker. MMSI: 240924000.

Date/timePositionNaut miles runAvg speedWind from/ knotsBaromVisibWave heightAir tempDewpointWater temp
2014-Jul-23 10:27N 01°13' E 103°52'5 5.7
2014-Jul-23 09:33N 01°16' E 103°56'0 0.1
2014-Jul-23 06:15N 01°17' E 103°56'0 0.1
2014-Jul-23 05:33N 01°17' E 103°56'0 0.1
2014-Jul-23 04:33N 01°17' E 103°56'0 0.0
2014-Jul-23 03:21N 01°17' E 103°56'0 0.1
2014-Jul-23 02:33N 01°17' E 103°56'0 0.1
2014-Jul-23 01:27N 01°17' E 103°56'0 0.1
2014-Jul-23 00:33N 01°17' E 103°56'0 0.1
2014-Jul-22 23:33N 01°17' E 103°56'0 0.0
2014-Jul-22 22:33N 01°17' E 103°56'0 0.0
2014-Jul-22 21:33N 01°17' E 103°56'0 0.1
2014-Jul-22 20:33N 01°17' E 103°56'0 0.0
2014-Jul-22 19:33N 01°17' E 103°56'0 0.0
2014-Jul-22 18:33N 01°17' E 103°56'0 0.1
2014-Jul-22 17:30N 01°17' E 103°56'0 0.0
2014-Jul-22 16:33N 01°17' E 103°56'0 0.0
2014-Jul-22 15:33N 01°17' E 103°56'0 0.0
2014-Jul-22 14:27N 01°17' E 103°56'0 0.1
2014-Jul-22 13:33N 01°17' E 103°56'0 0.1
2014-Jul-22 12:33N 01°17' E 103°56'0 0.1
2014-Jul-22 11:33N 01°17' E 103°56'0 0.0
2014-Jul-22 10:33N 01°17' E 103°56'0 0.0
2014-Jul-22 09:33N 01°17' E 103°56'0 0.0
2014-Jul-22 07:21N 01°17' E 103°56'0 0.1
2014-Jul-22 06:24N 01°17' E 103°56'0 0.0
2014-Jul-22 04:30N 01°17' E 103°56'0 0.0
2014-Jul-22 03:09N 01°17' E 103°56'0 0.0
2014-Jul-22 02:27N 01°17' E 103°56'0 0.0
2014-Jul-22 01:30N 01°17' E 103°56'0 0.0
2014-Jul-22 00:30N 01°17' E 103°56'0 0.0
2014-Jul-21 23:33N 01°17' E 103°56'0 0.0
2014-Jul-21 22:33N 01°17' E 103°56'0 0.1
2014-Jul-21 21:33N 01°17' E 103°56'0 0.1
2014-Jul-21 20:33N 01°17' E 103°56'0 0.2
2014-Jul-21 20:15N 01°17' E 103°56'0 0.0
2014-Jul-21 19:30N 01°17' E 103°56'0 0.1
2014-Jul-21 18:33N 01°17' E 103°56'0 0.0
2014-Jul-21 17:33N 01°17' E 103°56'0 0.0
2014-Jul-21 16:33N 01°17' E 103°56'0 0.0
2014-Jul-21 15:33N 01°17' E 103°56'0 0.0
2014-Jul-21 14:33N 01°17' E 103°56'0 0.0
2014-Jul-21 13:30N 01°17' E 103°56'0 0.1
2014-Jul-21 12:33N 01°17' E 103°56'0 0.1
2014-Jul-21 11:33N 01°17' E 103°56'0 0.0
2014-Jul-21 09:33N 01°17' E 103°56'0 0.0
2014-Jul-21 08:33N 01°17' E 103°56'0 0.0
2014-Jul-21 07:18N 01°17' E 103°56'0 0.0
2014-Jul-21 06:33N 01°17' E 103°56'0 0.0
2014-Jul-21 05:33N 01°17' E 103°56'0 0.1
2014-Jul-21 04:33N 01°17' E 103°56'0 0.0
2014-Jul-21 03:33N 01°17' E 103°56'0 0.0
2014-Jul-21 02:33N 01°17' E 103°56'0 0.0
2014-Jul-21 01:33N 01°17' E 103°56'0 0.0
2014-Jul-21 00:33N 01°17' E 103°56'0 0.0
2014-Jul-20 23:33N 01°17' E 103°56'0 0.0
2014-Jul-20 22:33N 01°17' E 103°56'0 0.0
2014-Jul-20 21:33N 01°17' E 103°56'0 0.0
2014-Jul-20 20:33N 01°17' E 103°56'0 0.0
2014-Jul-20 19:30N 01°17' E 103°56'0 0.1
2014-Jul-20 18:33N 01°17' E 103°56'0 0.0
2014-Jul-20 17:33N 01°17' E 103°56'0 0.0
2014-Jul-20 16:33N 01°17' E 103°56'0 0.0
2014-Jul-20 15:33N 01°17' E 103°56'0 0.4
2014-Jul-20 14:33N 01°17' E 103°56'4 3.5
2014-Jul-20 13:33N 01°16' E 103°59'4 4.0
2014-Jul-20 12:33N 01°16' E 104°03'  
2014-Jul-15 07:16N 22°19' E 119°59'1013.4
2014-Jul-15 06:33N 22°28' E 120°04'8 8.1
2014-Jul-15 05:33N 22°35' E 120°08'5 5.1
2014-Jul-15 04:33N 22°31' E 120°04'9 9.4
2014-Jul-15 03:33N 22°22' E 120°05'1311.3
2014-Jul-15 02:22N 22°09' E 120°07'  

Dump ship's entire track history